createdAt,value
2022-08-14T00:02:02.994Z,65.20
2022-08-14T00:04:44.595Z,65.07
2022-08-14T00:07:14.125Z,64.63
2022-08-14T00:09:55.457Z,65.61
2022-08-14T00:12:33.726Z,64.82
2022-08-14T00:15:10.157Z,64.75
2022-08-14T00:17:47.956Z,66.77
2022-08-14T00:20:23.939Z,66.37
2022-08-14T00:22:58.412Z,67.13
2022-08-14T00:25:41.585Z,67.35
2022-08-14T00:28:15.613Z,66.84
2022-08-14T00:30:47.000Z,66.65
2022-08-14T00:33:16.171Z,66.22
2022-08-14T00:36:37.229Z,67.22
2022-08-14T00:38:31.973Z,67.86
2022-08-14T00:41:02.870Z,67.07
2022-08-14T00:43:32.325Z,66.58
2022-08-14T00:46:08.032Z,66.45
2022-08-14T00:48:38.193Z,65.87
2022-08-14T00:51:07.699Z,66.17
2022-08-14T00:53:36.292Z,66.22
2022-08-14T00:56:06.924Z,67.10
2022-08-14T00:58:36.298Z,68.11
2022-08-14T01:01:14.515Z,65.69
2022-08-14T01:03:44.864Z,66.22
2022-08-14T01:06:15.090Z,66.42
2022-08-14T01:08:51.960Z,66.36
2022-08-14T01:11:25.689Z,65.46
2022-08-14T01:14:01.542Z,67.25
2022-08-14T01:16:32.297Z,66.59
2022-08-14T01:19:19.586Z,66.45
2022-08-14T01:21:53.393Z,65.87
2022-08-14T01:24:30.646Z,66.93
2022-08-14T01:27:02.037Z,66.72
2022-08-14T01:29:59.216Z,65.76
2022-08-14T01:32:23.030Z,66.42
2022-08-14T01:35:21.144Z,67.12
2022-08-14T01:37:44.450Z,66.33
2022-08-14T01:40:15.515Z,66.98
2022-08-14T01:42:47.312Z,66.55
2022-08-14T01:45:17.865Z,66.27
2022-08-14T01:48:03.642Z,66.35
2022-08-14T01:50:32.767Z,66.29
2022-08-14T01:53:01.710Z,66.42
2022-08-14T01:55:31.286Z,68.39
2022-08-14T01:58:01.724Z,67.28
2022-08-14T02:00:47.981Z,67.60
2022-08-14T02:03:16.170Z,66.56
2022-08-14T02:05:43.748Z,67.46
2022-08-14T02:08:10.893Z,67.35
2022-08-14T02:10:46.379Z,67.20
2022-08-14T02:13:15.949Z,67.39
2022-08-14T02:15:44.150Z,67.29
2022-08-14T02:18:11.675Z,67.17
2022-08-14T02:20:39.943Z,67.13
2022-08-14T02:23:08.207Z,67.20
2022-08-14T02:25:35.910Z,67.12
2022-08-14T02:28:23.244Z,67.16
2022-08-14T02:30:52.693Z,67.35
2022-08-14T02:33:21.232Z,67.41
2022-08-14T02:35:53.288Z,68.62
2022-08-14T02:38:35.009Z,68.28
2022-08-14T02:41:08.782Z,68.12
2022-08-14T02:43:46.193Z,67.64
2022-08-14T02:46:20.721Z,68.38
2022-08-14T02:49:04.727Z,69.14
2022-08-14T02:51:33.841Z,69.50
2022-08-14T02:54:01.880Z,70.23
2022-08-14T02:57:15.356Z,73.11
2022-08-14T02:59:23.565Z,72.61
2022-08-14T03:01:54.768Z,74.09
2022-08-14T03:04:22.179Z,71.54
2022-08-14T03:07:06.438Z,71.96
2022-08-14T03:10:25.370Z,71.43
2022-08-14T03:12:36.284Z,71.11
2022-08-14T03:15:14.166Z,70.82
2022-08-14T03:17:56.125Z,70.13
2022-08-14T03:20:28.865Z,70.06
2022-08-14T03:22:59.366Z,69.66
2022-08-14T03:25:33.279Z,69.70
2022-08-14T03:28:07.335Z,69.60
2022-08-14T03:30:40.040Z,71.83
2022-08-14T03:33:10.667Z,71.92
2022-08-14T03:36:07.645Z,71.20
2022-08-14T03:39:10.930Z,71.70
2022-08-14T03:41:19.186Z,72.93
2022-08-14T03:43:57.729Z,73.36
2022-08-14T03:46:39.212Z,73.04
2022-08-14T03:49:28.569Z,77.87
2022-08-14T03:52:00.718Z,80.30
2022-08-14T03:54:28.925Z,79.01
2022-08-14T03:57:02.465Z,81.98
2022-08-14T03:59:31.360Z,80.70
2022-08-14T04:02:02.320Z,83.30
2022-08-14T04:04:31.991Z,83.67
2022-08-14T04:07:00.812Z,85.06
2022-08-14T04:09:29.287Z,85.07
2022-08-14T04:11:57.995Z,83.91
2022-08-14T04:14:26.694Z,84.84
2022-08-14T04:16:54.056Z,86.18
2022-08-14T04:19:23.954Z,84.61
2022-08-14T04:22:02.165Z,84.27
2022-08-14T04:24:38.981Z,84.76
2022-08-14T04:27:11.787Z,83.45
2022-08-14T04:29:40.164Z,86.60
2022-08-14T04:32:57.751Z,88.76
2022-08-14T04:34:58.089Z,85.43
2022-08-14T04:37:45.272Z,85.26
2022-08-14T04:40:32.915Z,88.97
2022-08-14T04:43:21.352Z,89.15
2022-08-14T04:45:51.184Z,88.44
2022-08-14T04:48:39.018Z,87.65
2022-08-14T04:51:09.499Z,86.98
2022-08-14T04:53:41.057Z,87.35
2022-08-14T04:56:30.053Z,84.96
2022-08-14T04:59:01.407Z,87.52
2022-08-14T05:01:29.224Z,87.41
2022-08-14T05:04:07.221Z,85.45
2022-08-14T05:06:37.199Z,85.38
2022-08-14T05:09:06.615Z,86.31
2022-08-14T05:11:36.669Z,82.81
2022-08-14T05:14:16.779Z,83.42
2022-08-14T05:16:52.208Z,79.93
2022-08-14T05:19:26.884Z,79.30
2022-08-14T05:22:15.786Z,79.71
2022-08-14T05:24:45.724Z,78.02
2022-08-14T05:27:19.956Z,78.27
2022-08-14T05:29:56.972Z,78.18
2022-08-14T05:32:27.809Z,77.17
2022-08-14T05:34:59.116Z,76.35
2022-08-14T05:37:28.039Z,75.79
2022-08-14T05:39:55.558Z,74.73
2022-08-14T05:42:29.461Z,75.10
2022-08-14T05:44:59.804Z,74.24
2022-08-14T05:47:29.095Z,72.89
2022-08-14T05:50:07.273Z,71.96
2022-08-14T05:52:45.002Z,71.94
2022-08-14T05:55:12.345Z,71.54
2022-08-14T05:57:46.646Z,71.64
2022-08-14T06:00:28.325Z,72.45
2022-08-14T06:02:58.175Z,72.48
2022-08-14T06:05:29.898Z,70.76
2022-08-14T06:08:00.166Z,71.12
2022-08-14T06:10:28.774Z,71.17
2022-08-14T06:13:01.931Z,70.92
2022-08-14T06:15:30.531Z,70.20
2022-08-14T06:17:59.862Z,70.29
2022-08-14T06:20:28.260Z,69.73
2022-08-14T06:22:56.253Z,70.78
2022-08-14T06:25:25.035Z,68.37
2022-08-14T06:27:53.685Z,68.82
2022-08-14T06:30:22.058Z,67.51
2022-08-14T06:32:52.353Z,67.15
2022-08-14T06:35:20.606Z,67.24
2022-08-14T06:37:49.339Z,65.18
2022-08-14T06:40:27.250Z,66.53
2022-08-14T06:43:03.647Z,65.99
2022-08-14T06:45:42.070Z,64.19
2022-08-14T06:48:14.330Z,64.95
2022-08-14T06:50:45.371Z,65.98
2022-08-14T06:53:14.544Z,65.32
2022-08-14T06:55:58.276Z,65.29
2022-08-14T06:58:31.458Z,65.34
2022-08-14T07:01:25.066Z,64.57
2022-08-14T07:04:23.249Z,63.79
2022-08-14T07:06:55.763Z,62.13
2022-08-14T07:09:44.112Z,61.33
2022-08-14T07:12:54.742Z,62.10
2022-08-14T07:15:28.518Z,61.56
2022-08-14T07:17:57.160Z,61.59
2022-08-14T07:20:30.710Z,61.80
2022-08-14T07:23:07.999Z,61.40
2022-08-14T07:25:37.649Z,60.36
2022-08-14T07:28:09.369Z,59.75
2022-08-14T07:30:41.935Z,59.03
2022-08-14T07:33:20.816Z,58.08
2022-08-14T07:35:58.335Z,56.70
2022-08-14T07:38:32.078Z,57.64
2022-08-14T07:41:04.261Z,57.17
2022-08-14T07:43:39.739Z,57.08
2022-08-14T07:46:33.432Z,55.83
2022-08-14T07:49:02.109Z,55.36
2022-08-14T07:51:36.822Z,55.26
2022-08-14T07:54:31.605Z,54.58
2022-08-14T07:56:59.927Z,54.03
2022-08-14T07:59:42.268Z,54.33
2022-08-14T08:02:18.069Z,53.09
2022-08-14T08:05:10.294Z,52.89
2022-08-14T08:07:39.411Z,53.32
2022-08-14T08:10:46.617Z,52.75
2022-08-14T08:13:17.251Z,52.91
2022-08-14T08:15:53.794Z,52.71
2022-08-14T08:18:29.296Z,50.89
2022-08-14T08:20:59.685Z,50.58
2022-08-14T08:23:39.897Z,49.74
2022-08-14T08:26:10.836Z,48.81
2022-08-14T08:28:38.138Z,49.70
2022-08-14T08:31:08.932Z,49.78
2022-08-14T08:33:37.341Z,49.21
2022-08-14T08:36:07.842Z,48.45
2022-08-14T08:39:17.101Z,47.48
2022-08-14T08:41:23.239Z,47.70
2022-08-14T08:43:52.521Z,47.37
2022-08-14T08:46:21.513Z,47.35
2022-08-14T08:51:33.563Z,44.67
2022-08-14T08:54:03.477Z,43.77
2022-08-14T08:56:49.987Z,43.98
2022-08-14T08:59:22.052Z,42.17
2022-08-14T09:01:51.572Z,44.92
2022-08-14T09:04:23.868Z,45.56
2022-08-14T09:07:01.427Z,46.25
2022-08-14T09:09:54.457Z,46.53
2022-08-14T09:12:26.980Z,43.63
2022-08-14T09:14:54.694Z,42.28
2022-08-14T09:17:26.073Z,42.45
2022-08-14T09:19:53.726Z,42.91
2022-08-14T09:22:34.938Z,43.71
2022-08-14T09:25:07.611Z,43.44
2022-08-14T09:27:36.699Z,43.86
2022-08-14T09:30:31.046Z,43.34
2022-08-14T09:33:00.083Z,44.20
2022-08-14T09:35:46.845Z,43.05
2022-08-14T09:38:25.724Z,42.85
2022-08-14T09:41:00.754Z,41.93
2022-08-14T09:43:33.405Z,41.73
2022-08-14T09:46:02.637Z,40.81
2022-08-14T09:48:31.154Z,41.29
2022-08-14T09:54:13.099Z,41.12
2022-08-14T09:56:30.189Z,40.25
2022-08-14T09:59:00.299Z,41.21
2022-08-14T10:01:36.057Z,41.16
2022-08-14T10:04:06.975Z,40.36
2022-08-14T10:06:52.663Z,40.53
2022-08-14T10:09:20.010Z,39.87
2022-08-14T10:11:58.914Z,39.81
2022-08-14T10:14:35.664Z,39.69
2022-08-14T10:17:06.048Z,40.54
2022-08-14T10:19:35.523Z,39.86
2022-08-14T10:23:22.317Z,39.67
2022-08-14T10:24:54.747Z,38.86
2022-08-14T10:27:23.507Z,38.51
2022-08-14T10:29:51.693Z,39.08
2022-08-14T10:32:28.868Z,38.90
2022-08-14T10:35:05.589Z,39.12
2022-08-14T10:37:44.246Z,38.38
2022-08-14T10:40:36.989Z,37.14
2022-08-14T10:43:00.016Z,37.34
2022-08-14T10:45:35.388Z,37.96
2022-08-14T10:48:24.579Z,38.94
2022-08-14T10:51:08.499Z,38.81
2022-08-14T10:53:39.107Z,38.04
2022-08-14T10:56:21.922Z,37.24
2022-08-14T10:59:06.085Z,37.66
2022-08-14T11:01:40.937Z,37.96
2022-08-14T11:04:27.609Z,37.79
2022-08-14T11:06:56.209Z,38.07
2022-08-14T11:09:23.643Z,37.95
2022-08-14T11:12:34.047Z,38.12
2022-08-14T11:14:50.664Z,37.86
2022-08-14T11:17:27.722Z,38.49
2022-08-14T11:20:01.012Z,38.45
2022-08-14T11:22:56.181Z,38.12
2022-08-14T11:25:18.571Z,37.68
2022-08-14T11:27:46.369Z,37.78
2022-08-14T11:30:51.621Z,37.70
2022-08-14T11:33:07.597Z,38.23
2022-08-14T11:35:47.093Z,38.41
2022-08-14T11:38:17.232Z,40.16
2022-08-14T11:40:47.057Z,38.76
2022-08-14T11:43:15.340Z,38.47
2022-08-14T11:45:45.779Z,38.21
2022-08-14T11:49:01.989Z,39.23
2022-08-14T11:51:12.412Z,38.27
2022-08-14T11:53:42.040Z,36.96
2022-08-14T11:56:11.193Z,36.73
2022-08-14T11:58:38.618Z,38.36
2022-08-14T12:01:07.181Z,38.66
2022-08-14T12:03:51.445Z,38.28
2022-08-14T12:06:29.207Z,38.49
2022-08-14T12:09:08.920Z,38.79
2022-08-14T12:11:47.384Z,37.69
2022-08-14T12:14:34.729Z,38.51
2022-08-14T12:17:09.421Z,38.89
2022-08-14T12:19:57.047Z,39.26
2022-08-14T12:22:34.659Z,39.49
2022-08-14T12:25:05.956Z,39.19
2022-08-14T12:27:52.818Z,39.33
2022-08-14T12:30:33.270Z,39.36
2022-08-14T12:33:08.432Z,39.35
2022-08-14T12:35:36.412Z,39.12
2022-08-14T12:38:07.351Z,38.31
2022-08-14T12:40:44.915Z,38.54
2022-08-14T12:43:14.136Z,39.05
2022-08-14T12:45:47.998Z,39.44
2022-08-14T12:48:21.269Z,39.30
2022-08-14T12:50:58.537Z,38.90
2022-08-14T12:53:38.594Z,39.30
2022-08-14T12:56:21.512Z,39.34
2022-08-14T12:58:56.704Z,38.75
2022-08-14T13:01:23.823Z,39.32
2022-08-14T13:03:52.671Z,38.78
2022-08-14T13:06:20.679Z,38.76
2022-08-14T13:08:52.971Z,38.55
2022-08-14T13:11:24.058Z,38.63
2022-08-14T13:13:56.053Z,38.15
2022-08-14T13:16:33.756Z,37.68
2022-08-14T13:19:11.082Z,38.20
2022-08-14T13:22:04.696Z,37.60
2022-08-14T13:24:27.883Z,37.92
2022-08-14T13:26:58.240Z,37.69
2022-08-14T13:29:28.183Z,37.32
2022-08-14T13:31:58.219Z,37.12
2022-08-14T13:34:27.008Z,37.24
2022-08-14T13:36:59.193Z,36.91
2022-08-14T13:39:35.961Z,37.17
2022-08-14T13:42:05.231Z,37.01
2022-08-14T13:44:36.112Z,36.81
2022-08-14T13:47:06.941Z,36.71
2022-08-14T13:49:37.565Z,36.19
2022-08-14T13:52:48.274Z,36.17
2022-08-14T13:54:55.653Z,35.39
2022-08-14T13:57:30.532Z,35.81
2022-08-14T14:00:00.713Z,35.74
2022-08-14T14:02:33.750Z,36.04
2022-08-14T14:05:03.226Z,36.69
2022-08-14T14:07:32.151Z,35.49
2022-08-14T14:10:06.245Z,36.34
2022-08-14T14:12:41.451Z,36.17
2022-08-14T14:15:10.091Z,36.33
2022-08-14T14:17:38.859Z,35.59
2022-08-14T14:20:10.641Z,35.19
2022-08-14T14:23:01.264Z,35.54
2022-08-14T14:25:45.636Z,35.79
2022-08-14T14:28:15.464Z,35.33
2022-08-14T14:30:53.090Z,35.37
2022-08-14T14:33:45.161Z,35.54
2022-08-14T14:36:11.582Z,35.74
2022-08-14T14:38:42.224Z,36.29
2022-08-14T14:41:10.838Z,35.96
2022-08-14T14:43:44.888Z,35.32
2022-08-14T14:46:13.233Z,35.82
2022-08-14T14:48:45.073Z,35.12
2022-08-14T14:51:22.406Z,35.30
2022-08-14T14:53:49.668Z,35.23
2022-08-14T14:56:50.075Z,35.13
2022-08-14T14:59:04.698Z,35.23
2022-08-14T15:01:34.660Z,35.10
2022-08-14T15:04:04.048Z,34.50
2022-08-14T15:06:35.699Z,34.44
2022-08-14T15:09:04.665Z,34.54
2022-08-14T15:11:32.333Z,34.55
2022-08-14T15:14:00.278Z,34.60
2022-08-14T15:16:28.116Z,34.10
2022-08-14T15:18:55.237Z,34.47
2022-08-14T15:21:22.782Z,35.09
2022-08-14T15:23:50.574Z,35.80
2022-08-14T15:26:24.264Z,36.53
2022-08-14T15:29:03.183Z,37.12
2022-08-14T15:31:36.158Z,37.34
2022-08-14T15:34:43.268Z,37.61
2022-08-14T15:37:06.233Z,38.73
2022-08-14T15:39:41.191Z,39.11
2022-08-14T15:42:15.643Z,39.13
2022-08-14T15:44:57.474Z,39.08
2022-08-14T15:47:28.266Z,39.12
2022-08-14T15:50:00.214Z,39.37
2022-08-14T15:52:32.645Z,38.51
2022-08-14T15:55:03.695Z,38.46
2022-08-14T15:57:32.071Z,38.62
2022-08-14T16:00:37.805Z,38.80
2022-08-14T16:03:08.784Z,38.68
2022-08-14T16:05:38.483Z,38.80
2022-08-14T16:08:06.551Z,38.96
2022-08-14T16:10:53.700Z,38.80
2022-08-14T16:13:39.800Z,39.05
2022-08-14T16:16:34.493Z,39.23
2022-08-14T16:18:59.073Z,39.01
2022-08-14T16:21:31.417Z,38.99
2022-08-14T16:23:59.873Z,39.30
2022-08-14T16:29:16.534Z,39.51
2022-08-14T16:31:45.648Z,39.50
2022-08-14T16:34:45.031Z,39.46
2022-08-14T16:37:03.180Z,40.10
2022-08-14T16:39:30.397Z,39.83
2022-08-14T16:40:24.350Z,39.44
2022-08-14T16:42:00.628Z,39.89
2022-08-14T16:44:48.083Z,40.19
2022-08-14T16:47:17.462Z,40.28
2022-08-14T16:50:02.780Z,40.02
2022-08-14T16:52:44.426Z,40.10
2022-08-14T16:55:13.958Z,39.73
2022-08-14T16:58:08.884Z,39.59
2022-08-14T17:00:44.096Z,40.10
2022-08-14T17:03:13.296Z,39.99
2022-08-14T17:05:43.368Z,40.37
2022-08-14T17:08:32.426Z,40.62
2022-08-14T17:11:04.754Z,40.85
2022-08-14T17:13:57.854Z,41.07
2022-08-14T17:16:28.924Z,41.13
2022-08-14T17:19:00.728Z,41.34
2022-08-14T17:21:33.985Z,41.10
2022-08-14T17:24:57.849Z,41.42
2022-08-14T17:26:55.039Z,41.54
2022-08-14T17:29:29.269Z,41.28
2022-08-14T17:32:02.137Z,41.73
2022-08-14T17:34:49.265Z,42.25
2022-08-14T17:37:45.816Z,42.32
2022-08-14T17:40:16.216Z,42.52
2022-08-14T17:42:51.466Z,42.56
2022-08-14T17:45:28.322Z,42.94
2022-08-14T17:47:59.147Z,43.57
2022-08-14T17:50:58.457Z,43.67
2022-08-14T17:53:27.789Z,43.89
2022-08-14T17:56:02.170Z,44.03
2022-08-14T17:58:38.590Z,44.42
2022-08-14T18:01:13.173Z,44.38
2022-08-14T18:03:50.712Z,44.64
2022-08-14T18:06:39.354Z,44.36
2022-08-14T18:09:24.919Z,44.86
2022-08-14T18:11:54.900Z,44.56
2022-08-14T18:14:32.724Z,44.94
2022-08-14T18:17:11.254Z,44.66
2022-08-14T18:19:41.467Z,45.37
2022-08-14T18:22:23.878Z,45.57
2022-08-14T18:24:57.027Z,45.65
2022-08-14T18:27:32.714Z,45.64
2022-08-14T18:30:00.015Z,45.50
2022-08-14T18:32:32.969Z,45.71
2022-08-14T18:35:11.255Z,46.20
2022-08-14T18:37:41.237Z,45.58
2022-08-14T18:40:34.341Z,45.66
2022-08-14T18:43:05.397Z,45.75
2022-08-14T18:45:34.459Z,46.10
2022-08-14T18:48:18.709Z,46.17
2022-08-14T18:50:47.587Z,46.69
2022-08-14T18:53:16.895Z,46.33
2022-08-14T18:55:52.953Z,46.15
2022-08-14T18:58:31.767Z,46.52
2022-08-14T19:01:02.290Z,46.87
2022-08-14T19:03:36.830Z,46.74
2022-08-14T19:06:08.051Z,46.76
2022-08-14T19:08:39.951Z,46.50
2022-08-14T19:11:31.970Z,46.69
2022-08-14T19:14:00.400Z,46.92
2022-08-14T19:16:34.980Z,47.12
2022-08-14T19:19:03.846Z,47.24
2022-08-14T19:21:32.514Z,47.53
2022-08-14T19:24:29.257Z,47.74
2022-08-14T19:27:16.777Z,47.53
2022-08-14T19:29:47.614Z,48.00
2022-08-14T19:32:39.147Z,48.29
2022-08-14T19:35:19.337Z,48.60
2022-08-14T19:37:48.663Z,48.35
2022-08-14T19:40:33.282Z,48.24
2022-08-14T19:43:03.269Z,48.45
2022-08-14T19:45:34.275Z,48.06
2022-08-14T19:48:02.887Z,48.47
2022-08-14T19:50:40.664Z,48.73
2022-08-14T19:53:16.448Z,48.87
2022-08-14T19:55:47.257Z,49.51
2022-08-14T19:58:15.782Z,49.60
2022-08-14T20:00:54.549Z,49.23
2022-08-14T20:03:24.982Z,49.72
2022-08-14T20:06:05.328Z,50.46
2022-08-14T20:11:00.943Z,50.22
2022-08-14T20:12:00.250Z,51.30
2022-08-14T20:14:20.904Z,51.06
2022-08-14T20:16:52.222Z,51.89
2022-08-14T20:19:24.595Z,51.64
2022-08-14T20:22:04.418Z,51.63
2022-08-14T20:24:45.437Z,50.76
2022-08-14T20:27:23.466Z,50.92
2022-08-14T20:32:59.842Z,52.40
2022-08-14T20:35:36.230Z,52.31
2022-08-14T20:38:31.837Z,51.69
2022-08-14T20:41:00.667Z,52.22
2022-08-14T20:43:47.773Z,52.84
2022-08-14T20:46:23.527Z,52.63
2022-08-14T20:49:03.213Z,53.93
2022-08-14T20:51:37.357Z,53.58
2022-08-14T20:54:07.234Z,53.30
2022-08-14T20:56:36.170Z,52.70
2022-08-14T20:59:15.427Z,52.21
2022-08-14T21:01:44.268Z,53.28
2022-08-14T21:04:47.333Z,52.47
2022-08-14T21:07:25.702Z,53.32
2022-08-14T21:10:50.904Z,53.58
2022-08-14T21:14:20.508Z,54.21
2022-08-14T21:16:59.249Z,53.40
2022-08-14T21:19:30.773Z,53.86
2022-08-14T21:22:02.656Z,53.81
2022-08-14T21:24:39.626Z,53.36
2022-08-14T21:27:37.303Z,55.50
2022-08-14T21:30:41.866Z,54.36
2022-08-14T21:34:02.544Z,53.85
2022-08-14T21:37:12.971Z,53.86
2022-08-14T21:39:46.609Z,54.09
2022-08-14T21:42:28.024Z,53.97
2022-08-14T21:44:55.496Z,54.14
2022-08-14T21:47:23.862Z,54.92
2022-08-14T21:49:50.999Z,55.74
2022-08-14T21:52:51.313Z,55.66
2022-08-14T21:55:13.159Z,54.67
2022-08-14T21:57:55.829Z,55.34
2022-08-14T22:00:35.687Z,54.64
2022-08-14T22:03:08.991Z,55.13
2022-08-14T22:05:37.764Z,55.06
2022-08-14T22:08:06.591Z,55.60
2022-08-14T22:10:34.894Z,55.56
2022-08-14T22:13:02.274Z,55.11
2022-08-14T22:15:32.655Z,55.46
2022-08-14T22:18:00.215Z,55.96
2022-08-14T22:20:29.955Z,55.89
2022-08-14T22:22:58.236Z,56.13
2022-08-14T22:25:31.976Z,56.38
2022-08-14T22:28:05.763Z,56.73
2022-08-14T22:30:33.642Z,58.75
2022-08-14T22:33:01.161Z,59.19
2022-08-14T22:35:28.635Z,59.98
2022-08-14T22:38:34.866Z,60.29
2022-08-14T22:41:04.412Z,59.17
2022-08-14T22:43:34.882Z,59.84
2022-08-14T22:46:14.501Z,59.76
2022-08-14T22:48:43.787Z,59.05
2022-08-14T22:51:13.435Z,58.44
2022-08-14T22:53:40.788Z,58.08
2022-08-14T22:56:21.098Z,57.76
2022-08-14T22:58:54.022Z,57.62
2022-08-14T23:01:25.514Z,57.57
2022-08-14T23:04:13.377Z,58.31
2022-08-14T23:07:04.729Z,57.85
2022-08-14T23:09:35.939Z,57.63
2022-08-14T23:12:27.698Z,57.36
2022-08-14T23:14:53.925Z,57.85
2022-08-14T23:17:22.657Z,58.34
2022-08-14T23:19:56.686Z,58.38
2022-08-14T23:22:26.195Z,58.20
2022-08-14T23:24:58.012Z,57.59
2022-08-14T23:28:03.595Z,59.05
2022-08-14T23:30:31.953Z,59.89
2022-08-14T23:33:02.559Z,60.59
2022-08-14T23:35:33.212Z,61.85
2022-08-14T23:38:05.572Z,62.06
2022-08-14T23:40:35.760Z,62.70
2022-08-14T23:43:09.258Z,63.10
2022-08-14T23:45:39.384Z,62.34
2022-08-14T23:48:09.776Z,62.21
2022-08-14T23:50:38.458Z,62.54
2022-08-14T23:53:28.014Z,63.50
2022-08-14T23:56:05.242Z,64.66
2022-08-14T23:58:32.443Z,64.53
